Time;durP1;ratioP1;P1;durP2;ratioP2;P2;SDS_P1;SDS_P2;PMS_P1;PMS_P2;Temp;Humidity;BMP_temperature;BMP_pressure;BME280_temperature;BME280_humidity;BME280_pressure;Samples;Min_cycle;Max_cycle;Signal;HPM_P1;HPM_P2
2023/04/13 00:00:36;;;;;;;1.90;0.47;;;;;;;6.64;100.00;95120.78;6188132;23;20012;-84
2023/04/13 00:03:03;;;;;;;0.27;0.27;;;;;;;6.55;100.00;95132.19;6180449;23;20005;-84
2023/04/13 00:05:29;;;;;;;0.73;0.30;;;;;;;6.53;100.00;95129.72;6180633;23;20004;-84
2023/04/13 00:07:56;;;;;;;0.90;0.47;;;;;;;6.58;100.00;95124.03;6181206;23;20009;-84
2023/04/13 00:10:22;;;;;;;0.87;0.43;;;;;;;6.47;100.00;95121.72;6206532;23;20416;-84
2023/04/13 00:12:52;;;;;;;0.73;0.30;;;;;;;6.47;100.00;95119.97;6156145;23;20092;-83
2023/04/13 00:15:18;;;;;;;1.07;0.30;;;;;;;6.48;100.00;95126.00;6156120;23;20016;-84
2023/04/13 00:17:46;;;;;;;0.77;0.30;;;;;;;6.39;100.00;95127.75;6179826;23;20444;-84
2023/04/13 00:20:13;;;;;;;1.00;0.50;;;;;;;6.34;100.00;95122.22;6156052;23;20004;-84
2023/04/13 00:22:44;;;;;;;1.10;0.40;;;;;;;6.40;100.00;95126.78;6180478;23;20067;-84
2023/04/13 00:25:11;;;;;;;1.77;0.47;;;;;;;6.49;100.00;95141.47;6155883;23;20021;-84
2023/04/13 00:27:41;;;;;;;1.67;0.60;;;;;;;6.46;100.00;95138.38;6180547;23;20016;-84
2023/04/13 00:30:11;;;;;;;2.90;0.37;;;;;;;6.46;100.00;95133.97;6154837;23;20330;-83
2023/04/13 00:32:39;;;;;;;0.77;0.40;;;;;;;6.36;100.00;95147.16;6180233;23;20033;-83
2023/04/13 00:35:07;;;;;;;2.00;0.30;;;;;;;6.34;100.00;95143.91;6155834;23;20001;-84
2023/04/13 00:37:33;;;;;;;0.97;0.40;;;;;;;6.36;100.00;95144.56;6180439;23;20017;-84
2023/04/13 00:39:59;;;;;;;1.03;0.43;;;;;;;6.43;100.00;95146.53;6155341;23;20075;-84
2023/04/13 00:42:25;;;;;;;2.63;0.40;;;;;;;6.36;100.00;95141.94;6154159;23;20024;-84
2023/04/13 00:44:52;;;;;;;1.23;0.33;;;;;;;6.27;100.00;95135.09;6180475;23;20063;-84
2023/04/13 00:47:25;;;;;;;1.03;0.30;;;;;;;6.18;100.00;95137.84;6205591;23;20012;-84
2023/04/13 00:49:54;;;;;;;2.38;0.38;;;;;;;6.33;100.00;95138.84;6156454;23;20086;-84
2023/04/13 00:52:21;;;;;;;2.13;0.50;;;;;;;6.37;100.00;95134.94;6155291;23;20019;-84
2023/04/13 00:54:55;;;;;;;0.87;0.40;;;;;;;6.32;100.00;95140.63;6180547;23;20017;-84
2023/04/13 00:57:24;;;;;;;0.20;0.20;;;;;;;6.35;100.00;95140.31;6180234;23;20036;-84
2023/04/13 01:00:00;;;;;;;1.27;0.47;;;;;;;6.38;100.00;95147.03;6178969;23;20013;-84
2023/04/13 01:02:25;;;;;;;1.57;0.40;;;;;;;6.35;100.00;95158.59;6154037;23;20013;-84
2023/04/13 01:04:53;;;;;;;0.53;0.30;;;;;;;6.34;100.00;95159.59;6155780;23;20020;-84
2023/04/13 01:07:22;;;;;;;2.10;0.50;;;;;;;6.25;100.00;95159.72;6155503;23;20013;-84
2023/04/13 01:10:13;;;;;;;0.40;0.30;;;;;;;6.19;100.00;95169.00;6155581;23;20075;-84
2023/04/13 01:12:55;;;;;;;0.93;0.43;;;;;;;6.19;100.00;95182.03;6155049;23;20013;-84
2023/04/13 01:15:22;;;;;;;1.13;0.47;;;;;;;6.10;100.00;95185.59;6179921;23;20016;-84
2023/04/13 01:17:55;;;;;;;2.03;0.60;;;;;;;6.10;100.00;95193.41;6155263;23;20342;-83
2023/04/13 01:20:27;;;;;;;0.30;0.20;;;;;;;6.09;100.00;95202.25;6180657;23;20009;-84
2023/04/13 01:22:55;;;;;;;3.50;0.90;;;;;;;6.07;100.00;95196.34;6155266;23;20024;-83
2023/04/13 01:25:24;;;;;;;1.10;0.40;;;;;;;6.02;100.00;95196.81;6180800;23;20017;-84
2023/04/13 01:28:01;;;;;;;0.70;0.50;;;;;;;6.11;100.00;95197.69;6155925;23;20025;-84
2023/04/13 01:30:31;;;;;;;0.70;0.30;;;;;;;6.11;100.00;95177.63;6155205;23;20017;-84
2023/04/13 01:32:58;;;;;;;0.50;0.30;;;;;;;6.16;100.00;95168.50;6181008;23;20017;-84
2023/04/13 01:35:35;;;;;;;1.73;0.43;;;;;;;5.95;100.00;95164.50;6156335;23;20013;-84
2023/04/13 01:38:02;;;;;;;0.50;0.30;;;;;;;6.10;100.00;95159.50;6157238;23;20469;-85
2023/04/13 01:40:30;;;;;;;0.83;0.40;;;;;;;6.09;100.00;95158.69;6158053;23;20036;-84
2023/04/13 01:42:56;;;;;;;1.87;0.40;;;;;;;6.01;100.00;95152.63;6191062;23;20260;-84
2023/04/13 01:45:39;;;;;;;0.70;0.40;;;;;;;5.90;100.00;95149.31;6185608;23;20044;-84
2023/04/13 01:48:20;;;;;;;0.93;0.43;;;;;;;6.00;100.00;95156.19;6156184;23;20012;-84
2023/04/13 01:51:19;;;;;;;1.38;0.50;;;;;;;5.99;100.00;95146.75;6181540;23;20033;-84
2023/04/13 01:53:58;;;;;;;2.10;0.43;;;;;;;6.00;100.00;95150.97;6179150;23;20015;-84
2023/04/13 01:56:25;;;;;;;1.37;0.50;;;;;;;5.99;100.00;95149.34;6156046;23;20099;-84
2023/04/13 01:58:58;;;;;;;0.90;0.30;;;;;;;6.08;100.00;95143.19;6180073;23;20036;-84
2023/04/13 02:01:26;;;;;;;1.40;0.30;;;;;;;6.05;100.00;95127.84;6181285;23;20016;-84
2023/04/13 02:03:52;;;;;;;1.37;0.30;;;;;;;6.02;100.00;95134.19;6183499;23;20024;-84
2023/04/13 02:06:18;;;;;;;0.93;0.43;;;;;;;6.10;100.00;95134.22;6158474;23;20016;-84
2023/04/13 02:08:56;;;;;;;1.40;0.40;;;;;;;6.14;100.00;95126.91;6182914;23;20016;-84
2023/04/13 02:11:22;;;;;;;0.77;0.40;;;;;;;6.15;100.00;95131.13;6157962;23;20013;-83
2023/04/13 02:13:47;;;;;;;0.47;0.37;;;;;;;6.07;100.00;95131.94;6183017;23;20012;-83
2023/04/13 02:16:17;;;;;;;1.50;0.40;;;;;;;6.06;100.00;95130.28;6159264;23;20020;-83
2023/04/13 02:19:15;;;;;;;2.30;0.43;;;;;;;6.02;100.00;95128.16;6158032;23;20464;-83
2023/04/13 02:21:41;;;;;;;0.97;0.40;;;;;;;5.87;100.00;95136.56;6157082;23;20076;-83
2023/04/13 02:24:07;;;;;;;2.00;0.43;;;;;;;5.87;100.00;95154.00;6179525;23;20497;-84
2023/04/13 02:26:36;;;;;;;0.60;0.40;;;;;;;5.83;100.00;95153.47;6205024;23;20024;-82
2023/04/13 02:29:01;;;;;;;0.77;0.30;;;;;;;5.85;100.00;95146.31;6156417;23;20068;-83
2023/04/13 02:31:30;;;;;;;0.70;0.70;;;;;;;5.89;100.00;95147.63;6156521;23;20368;-83
2023/04/13 02:33:57;;;;;;;0.80;0.40;;;;;;;5.81;100.00;95150.22;6209879;23;20096;-83
2023/04/13 02:36:23;;;;;;;2.10;0.70;;;;;;;5.81;100.00;95142.41;6210152;23;20071;-83
2023/04/13 02:38:55;;;;;;;0.60;0.40;;;;;;;5.82;100.00;95141.41;6158111;23;20277;-83
2023/04/13 02:41:28;;;;;;;1.90;0.40;;;;;;;5.83;100.00;95135.22;6159957;23;20023;-83
2023/04/13 02:43:55;;;;;;;1.83;0.70;;;;;;;5.83;100.00;95132.63;6184209;23;20020;-83
2023/04/13 02:46:23;;;;;;;3.23;0.60;;;;;;;5.72;100.00;95142.53;6184214;23;20104;-83
2023/04/13 02:48:55;;;;;;;1.23;0.30;;;;;;;5.72;100.00;95142.53;6184258;23;20009;-83
2023/04/13 02:51:22;;;;;;;1.50;0.30;;;;;;;5.59;100.00;95145.56;6184156;23;20392;-83
2023/04/13 02:53:48;;;;;;;1.47;0.50;;;;;;;5.51;100.00;95150.72;6183297;23;20005;-83
2023/04/13 02:56:14;;;;;;;0.93;0.40;;;;;;;5.52;100.00;95141.94;6158794;23;20024;-83
2023/04/13 02:58:41;;;;;;;1.23;0.40;;;;;;;5.31;100.00;95145.72;6209499;23;20020;-83
2023/04/13 03:01:13;;;;;;;3.03;0.50;;;;;;;5.22;100.00;95153.63;6160207;23;20716;-83
2023/04/13 03:03:46;;;;;;;1.63;0.40;;;;;;;5.35;100.00;95151.44;6157725;23;20062;-83
2023/04/13 03:06:12;;;;;;;1.57;0.60;;;;;;;5.34;100.00;95163.66;6157154;23;20020;-83
2023/04/13 03:08:46;;;;;;;0.45;0.28;;;;;;;5.32;100.00;95157.78;6181394;23;20617;-83
2023/04/13 03:11:19;;;;;;;2.13;0.40;;;;;;;5.30;100.00;95157.13;6206218;23;20096;-83
2023/04/13 03:13:53;;;;;;;1.50;0.40;;;;;;;5.19;100.00;95162.56;6158409;23;20021;-83
2023/04/13 03:16:19;;;;;;;2.00;0.70;;;;;;;5.12;100.00;95157.16;6206060;23;20036;-83
2023/04/13 03:18:45;;;;;;;1.27;0.40;;;;;;;5.26;100.00;95155.78;6156087;23;20021;-83
2023/04/13 03:21:12;;;;;;;1.40;0.30;;;;;;;5.20;100.00;95151.19;6181864;23;20008;-83
2023/04/13 03:23:46;;;;;;;3.20;0.57;;;;;;;5.21;100.00;95158.03;6182742;23;20020;-82
2023/04/13 03:26:14;;;;;;;1.27;0.50;;;;;;;5.22;100.00;95159.66;6207259;23;20021;-84
2023/04/13 03:28:40;;;;;;;3.43;0.60;;;;;;;5.34;100.00;95165.47;6174241;23;20421;-84
2023/04/13 03:31:05;;;;;;;2.90;0.57;;;;;;;5.30;100.00;95172.78;6155101;23;20012;-83
2023/04/13 03:33:35;;;;;;;2.07;0.67;;;;;;;5.34;100.00;95170.69;6157518;23;20021;-83
2023/04/13 03:36:02;;;;;;;2.37;0.80;;;;;;;5.44;100.00;95174.81;6206272;23;20017;-83
2023/04/13 03:38:33;;;;;;;2.50;0.40;;;;;;;5.34;100.00;95174.09;6181185;23;20017;-83
2023/04/13 03:40:59;;;;;;;4.73;0.60;;;;;;;5.18;100.00;95171.38;6179621;23;20079;-84
2023/04/13 03:43:26;;;;;;;3.13;0.60;;;;;;;5.13;100.00;95173.59;6155847;23;20079;-83
2023/04/13 03:46:00;;;;;;;2.45;0.47;;;;;;;5.07;100.00;95176.84;6157301;23;20083;-83
2023/04/13 03:48:26;;;;;;;3.37;0.80;;;;;;;5.08;100.00;95176.69;6206550;23;20382;-83
2023/04/13 03:50:52;;;;;;;4.00;1.73;;;;;;;5.09;100.00;95173.09;6181494;23;20449;-83
2023/04/13 03:53:23;;;;;;;2.47;0.63;;;;;;;5.08;100.00;95174.06;6156339;23;20018;-84
2023/04/13 03:55:53;;;;;;;4.37;0.80;;;;;;;5.07;100.00;95174.22;6206033;23;20020;-85
2023/04/13 03:58:28;;;;;;;4.30;0.60;;;;;;;5.09;100.00;95167.88;6205718;23;20665;-85
2023/04/13 04:00:53;;;;;;;2.53;0.90;;;;;;;5.19;100.00;95170.41;6180472;23;20024;-83
2023/04/13 04:03:26;;;;;;;5.53;0.93;;;;;;;5.19;100.00;95173.00;6158095;23;20141;-85
2023/04/13 04:06:14;;;;;;;2.23;0.60;;;;;;;5.16;100.00;95166.31;6181605;23;20016;-85
2023/04/13 04:08:48;;;;;;;4.47;0.80;;;;;;;5.18;100.00;95172.19;6207308;23;20027;-85
2023/04/13 04:11:36;;;;;;;2.17;0.53;;;;;;;5.23;100.00;95174.34;6183175;23;20475;-85
2023/04/13 04:14:04;;;;;;;2.60;0.60;;;;;;;5.14;100.00;95163.03;6182517;23;20092;-84
2023/04/13 04:16:33;;;;;;;2.63;0.60;;;;;;;5.19;100.00;95170.41;6181390;23;20012;-84
2023/04/13 04:19:06;;;;;;;4.70;1.57;;;;;;;5.22;100.00;95159.66;6158166;23;20023;-84
2023/04/13 04:21:35;;;;;;;1.23;0.50;;;;;;;5.22;100.00;95157.06;6156601;23;20013;-84
2023/04/13 04:24:05;;;;;;;2.03;0.52;;;;;;;5.24;100.00;95152.53;6206095;23;20028;-84
2023/04/13 04:26:34;;;;;;;2.13;0.60;;;;;;;5.21;100.00;95150.22;6180957;23;20071;-84
2023/04/13 04:29:03;;;;;;;1.27;0.47;;;;;;;5.27;100.00;95157.44;6181175;23;20586;-84
2023/04/13 04:31:33;;;;;;;3.97;0.67;;;;;;;5.21;100.00;95152.81;6160736;23;20012;-86
2023/04/13 04:34:15;;;;;;;3.07;0.70;;;;;;;5.33;100.00;95169.88;6158877;23;20337;-86
2023/04/13 04:36:44;;;;;;;1.90;0.70;;;;;;;5.27;100.00;95174.88;6207978;23;20342;-86
2023/04/13 04:39:12;;;;;;;3.27;0.80;;;;;;;5.08;100.00;95163.66;6157550;23;20750;-86
2023/04/13 04:41:52;;;;;;;4.30;0.60;;;;;;;5.04;100.00;95174.53;6159084;23;20056;-86
2023/04/13 04:44:23;;;;;;;4.28;0.80;;;;;;;5.05;100.00;95181.38;6181926;23;20013;-83
2023/04/13 04:47:19;;;;;;;1.17;0.53;;;;;;;4.97;100.00;95184.75;6157060;23;20063;-83
2023/04/13 04:50:09;;;;;;;3.23;1.07;;;;;;;5.02;100.00;95181.66;6180898;23;20095;-84
2023/04/13 04:52:39;;;;;;;3.97;0.73;;;;;;;5.05;100.00;95186.59;6204144;23;20017;-84
2023/04/13 04:55:06;;;;;;;4.33;0.67;;;;;;;5.07;100.00;95188.06;6153706;23;20013;-85
2023/04/13 04:57:35;;;;;;;0.93;0.50;;;;;;;5.07;100.00;95192.47;6203930;23;20017;-84
2023/04/13 05:00:21;;;;;;;1.43;0.40;;;;;;;5.05;100.00;95189.19;6178459;23;20019;-84
2023/04/13 05:02:59;;;;;;;2.87;0.60;;;;;;;5.15;100.00;95187.31;6157613;23;20017;-84
2023/04/13 05:05:25;;;;;;;2.23;0.60;;;;;;;5.26;100.00;95194.06;6155590;23;20009;-84
2023/04/13 05:07:51;;;;;;;3.23;0.50;;;;;;;5.32;100.00;95190.84;6157921;23;20067;-84
2023/04/13 05:10:17;;;;;;;4.93;0.80;;;;;;;5.36;100.00;95185.16;6156240;23;20021;-84
2023/04/13 05:12:50;;;;;;;0.85;0.38;;;;;;;5.40;100.00;95189.13;6159245;23;20013;-84
2023/04/13 05:15:16;;;;;;;2.23;0.57;;;;;;;5.35;100.00;95191.38;6157047;23;20344;-83
2023/04/13 05:17:45;;;;;;;2.17;0.87;;;;;;;5.41;100.00;95192.56;6155043;23;20016;-84
2023/04/13 05:20:19;;;;;;;1.27;0.40;;;;;;;5.42;100.00;95199.41;6204835;23;20017;-84
2023/04/13 05:22:52;;;;;;;2.20;0.70;;;;;;;5.47;100.00;95197.16;6156782;23;20064;-84
2023/04/13 05:25:18;;;;;;;1.97;0.50;;;;;;;5.55;100.00;95197.19;6181107;23;20009;-84
2023/04/13 05:27:45;;;;;;;3.83;0.73;;;;;;;5.50;100.00;95199.47;6156551;23;20009;-84
2023/04/13 05:30:12;;;;;;;2.47;0.50;;;;;;;5.55;100.00;95194.59;6155081;23;20471;-84
2023/04/13 05:32:40;;;;;;;3.00;0.53;;;;;;;5.53;100.00;95206.97;6180551;23;20067;-86
2023/04/13 05:35:06;;;;;;;1.20;0.60;;;;;;;5.48;100.00;95195.38;6157088;23;20027;-84
2023/04/13 05:37:43;;;;;;;4.20;0.53;;;;;;;5.51;100.00;95202.88;6153565;23;20397;-84
2023/04/13 05:40:16;;;;;;;2.42;0.70;;;;;;;5.59;100.00;95206.34;6157181;23;20017;-84
2023/04/13 05:42:42;;;;;;;4.03;0.93;;;;;;;5.78;100.00;95207.94;6179788;23;20480;-84
2023/04/13 05:45:10;;;;;;;2.83;0.97;;;;;;;5.80;100.00;95198.19;6156344;23;20067;-84
2023/04/13 05:47:48;;;;;;;3.70;0.90;;;;;;;5.90;100.00;95204.09;6158299;23;20004;-84
2023/04/13 05:50:14;;;;;;;2.57;0.80;;;;;;;5.85;100.00;95208.13;6156385;23;20017;-85
2023/04/13 05:52:41;;;;;;;3.30;0.90;;;;;;;5.75;100.00;95210.84;6155570;23;20016;-84
2023/04/13 05:55:07;;;;;;;2.20;0.83;;;;;;;5.76;100.00;95198.63;6155320;23;20055;-84
2023/04/13 05:57:34;;;;;;;2.93;0.87;;;;;;;5.87;100.00;95214.84;6181560;23;20025;-84
2023/04/13 06:00:06;;;;;;;2.33;0.63;;;;;;;5.91;100.00;95213.53;6180855;23;20453;-84
2023/04/13 06:02:53;;;;;;;3.00;0.60;;;;;;;6.09;100.00;95217.91;6180732;23;20017;-85
2023/04/13 06:05:19;;;;;;;2.77;0.67;;;;;;;6.10;100.00;95214.31;6182295;23;20021;-84
2023/04/13 06:07:45;;;;;;;1.37;0.50;;;;;;;6.18;100.00;95210.94;6182834;23;20004;-84
2023/04/13 06:10:13;;;;;;;3.77;0.77;;;;;;;6.34;100.00;95216.22;6157674;23;20092;-85
2023/04/13 06:12:40;;;;;;;3.13;0.83;;;;;;;6.30;100.00;95222.72;6157735;23;20096;-84
2023/04/13 06:15:06;;;;;;;1.00;0.57;;;;;;;6.31;100.00;95219.94;6157999;23;20009;-84
2023/04/13 06:17:32;;;;;;;4.37;0.90;;;;;;;6.35;100.00;95223.06;6157688;23;20528;-84
2023/04/13 06:19:58;;;;;;;6.23;1.10;;;;;;;6.42;100.00;95218.03;6158148;23;20009;-85
2023/04/13 06:22:24;;;;;;;4.93;1.20;;;;;;;6.42;100.00;95221.44;6183099;23;20017;-85
2023/04/13 06:24:50;;;;;;;5.67;1.20;;;;;;;6.54;100.00;95219.38;6158383;23;20322;-85
2023/04/13 06:27:19;;;;;;;2.90;0.97;;;;;;;6.57;100.00;95217.28;6158876;23;20063;-85
2023/04/13 06:29:46;;;;;;;5.83;0.90;;;;;;;6.70;100.00;95214.16;6183430;23;20009;-84
2023/04/13 06:32:12;;;;;;;5.40;1.20;;;;;;;6.79;100.00;95208.00;6184403;23;20009;-84
2023/04/13 06:34:38;;;;;;;4.93;1.20;;;;;;;6.92;100.00;95211.94;6208937;23;20013;-84
2023/04/13 06:37:05;;;;;;;5.00;1.10;;;;;;;6.77;100.00;95215.19;6159381;23;20062;-84
2023/04/13 06:39:42;;;;;;;7.47;1.07;;;;;;;6.82;100.00;95209.47;6183125;23;20017;-84
2023/04/13 06:42:08;;;;;;;4.63;1.33;;;;;;;6.77;100.00;95209.97;6208649;23;20020;-85
2023/04/13 06:44:52;;;;;;;4.30;0.90;;;;;;;6.77;100.00;95209.97;6202881;23;20027;-85
2023/04/13 06:47:21;;;;;;;5.57;1.20;;;;;;;6.56;100.00;95207.78;6177611;23;20368;-83
2023/04/13 06:49:47;;;;;;;6.97;1.43;;;;;;;6.65;100.00;95213.84;6179512;23;20073;-85
2023/04/13 06:52:19;;;;;;;6.43;2.10;;;;;;;6.61;100.00;95217.75;6199651;23;20080;-85
2023/04/13 06:54:45;;;;;;;6.83;1.57;;;;;;;6.74;100.00;95223.34;6167298;23;20099;-85
2023/04/13 06:57:24;;;;;;;7.80;1.33;;;;;;;6.68;100.00;95218.75;6202676;23;20005;-85
2023/04/13 06:59:50;;;;;;;5.30;1.17;;;;;;;6.72;100.00;95221.88;6157899;23;20020;-85
2023/04/13 07:02:26;;;;;;;5.83;1.10;;;;;;;6.75;100.00;95224.97;6157292;23;20353;-85
2023/04/13 07:04:52;;;;;;;3.77;1.00;;;;;;;6.72;100.00;95225.28;6158042;23;20013;-85
2023/04/13 07:07:21;;;;;;;10.77;1.83;;;;;;;6.94;100.00;95217.81;6183967;23;20009;-85
2023/04/13 07:09:46;;;;;;;6.43;1.20;;;;;;;7.08;100.00;95222.41;6182727;23;20075;-84
2023/04/13 07:12:12;;;;;;;3.83;1.40;;;;;;;6.98;100.00;95222.56;6156915;23;20019;-85
2023/04/13 07:14:40;;;;;;;6.97;1.13;;;;;;;6.97;100.00;95226.13;6158213;23;20024;-85
2023/04/13 07:17:10;;;;;;;5.23;1.23;;;;;;;6.88;100.00;95219.28;6206344;23;20385;-84
2023/04/13 07:19:48;;;;;;;5.80;1.20;;;;;;;6.82;100.00;95219.91;6158608;23;20013;-85
2023/04/13 07:22:19;;;;;;;8.20;1.03;;;;;;;6.89;100.00;95226.13;6208406;23;20017;-84
2023/04/13 07:25:17;;;;;;;5.10;1.30;;;;;;;6.87;100.00;95224.66;6183467;23;20168;-85
2023/04/13 07:27:44;;;;;;;6.80;1.50;;;;;;;7.02;100.00;95231.72;6158653;23;20017;-84
2023/04/13 07:30:10;;;;;;;5.43;1.43;;;;;;;6.88;100.00;95234.16;6158476;23;20357;-84
2023/04/13 07:32:41;;;;;;;5.27;1.90;;;;;;;7.11;100.00;95232.56;6183279;23;20009;-85
2023/04/13 07:35:09;;;;;;;3.83;0.93;;;;;;;7.39;100.00;95232.22;6183807;23;20013;-85
2023/04/13 07:37:37;;;;;;;4.77;1.37;;;;;;;7.31;100.00;95226.00;6182477;23;20095;-84
2023/04/13 07:40:03;;;;;;;6.50;1.30;;;;;;;7.56;100.00;95223.38;6186809;23;20004;-85
2023/04/13 07:42:31;;;;;;;9.60;1.90;;;;;;;7.53;100.00;95232.38;6157922;23;20357;-85
2023/04/13 07:44:57;;;;;;;7.60;1.10;;;;;;;7.76;100.00;95242.97;6158393;23;20040;-85
2023/04/13 07:47:26;;;;;;;5.17;1.17;;;;;;;7.54;100.00;95241.88;6157166;23;20009;-85
2023/04/13 07:49:56;;;;;;;6.57;1.20;;;;;;;7.58;100.00;95231.88;6158973;23;20009;-84
2023/04/13 07:52:28;;;;;;;5.13;0.83;;;;;;;7.78;100.00;95233.16;6181895;23;20023;-85
2023/04/13 07:54:53;;;;;;;11.37;2.90;;;;;;;7.73;100.00;95242.50;6206345;23;20021;-84
2023/04/13 07:57:21;;;;;;;5.30;1.83;;;;;;;7.70;100.00;95238.41;6158179;23;20539;-84
2023/04/13 07:59:52;;;;;;;4.63;1.00;;;;;;;7.69;100.00;95238.56;6159239;23;20001;-84
2023/04/13 08:02:19;;;;;;;1.93;0.90;;;;;;;7.60;100.00;95235.13;6156313;23;20024;-84
2023/04/13 08:04:48;;;;;;;2.67;0.93;;;;;;;7.51;100.00;95242.19;6182615;23;20396;-84
2023/04/13 08:07:21;;;;;;;4.47;1.13;;;;;;;7.37;100.00;95239.41;6182821;23;20009;-85
2023/04/13 08:09:48;;;;;;;5.30;1.27;;;;;;;7.30;100.00;95250.50;6157110;23;20019;-85
2023/04/13 08:12:18;;;;;;;5.90;1.10;;;;;;;7.54;100.00;95244.47;6183024;23;20044;-84
2023/04/13 08:14:50;;;;;;;5.87;1.37;;;;;;;7.71;100.00;95255.75;6157583;23;20060;-85
2023/04/13 08:17:16;;;;;;;4.27;0.90;;;;;;;7.66;100.00;95249.38;6157024;23;20013;-85
2023/04/13 08:19:41;;;;;;;5.23;2.00;;;;;;;7.67;100.00;95261.47;6182559;23;20024;-85
2023/04/13 08:22:11;;;;;;;4.23;0.90;;;;;;;7.63;100.00;95265.41;6157659;23;20017;-85
2023/04/13 08:24:48;;;;;;;3.83;0.90;;;;;;;7.54;100.00;95257.56;6182690;23;20437;-85
2023/04/13 08:27:14;;;;;;;4.10;0.80;;;;;;;7.63;100.00;95255.75;6157953;23;20016;-85
2023/04/13 08:29:40;;;;;;;8.10;2.00;;;;;;;7.74;100.00;95252.78;6181395;23;20013;-86
2023/04/13 08:32:06;;;;;;;6.47;0.90;;;;;;;7.82;100.00;95254.59;6156418;23;20024;-86
2023/04/13 08:34:33;;;;;;;3.17;0.90;;;;;;;7.94;100.00;95257.66;6182815;23;20099;-85
2023/04/13 08:36:59;;;;;;;3.33;0.83;;;;;;;8.02;100.00;95257.66;6159019;23;20008;-85
2023/04/13 08:39:29;;;;;;;2.50;0.60;;;;;;;7.94;100.00;95261.09;6188681;23;20013;-85
2023/04/13 08:42:00;;;;;;;2.63;0.50;;;;;;;8.18;100.00;95249.75;6193717;23;20012;-86
2023/04/13 08:44:31;;;;;;;4.43;0.90;;;;;;;8.07;100.00;95255.34;6159391;23;20020;-85
2023/04/13 08:46:59;;;;;;;6.90;1.13;;;;;;;8.17;100.00;95258.59;6158236;23;20462;-85
2023/04/13 08:49:31;;;;;;;3.67;0.97;;;;;;;8.51;100.00;95252.28;6182494;23;20013;-85
2023/04/13 08:52:19;;;;;;;5.50;1.27;;;;;;;9.07;100.00;95250.34;6181895;23;20111;-85
2023/04/13 08:54:51;;;;;;;4.93;1.10;;;;;;;9.33;100.00;95251.81;6158504;23;20019;-85
2023/04/13 08:57:22;;;;;;;6.73;1.00;;;;;;;9.17;100.00;95245.69;6158523;23;20060;-84
2023/04/13 08:59:53;;;;;;;7.40;1.30;;;;;;;8.87;100.00;95246.53;6157602;23;20096;-84
2023/04/13 09:02:24;;;;;;;3.03;0.80;;;;;;;8.82;100.00;95246.22;6156647;23;20148;-84
2023/04/13 09:04:58;;;;;;;5.20;0.90;;;;;;;9.21;100.00;95248.75;6184416;23;20119;-84
2023/04/13 09:07:52;;;;;;;6.73;1.87;;;;;;;9.61;100.00;95252.88;6157241;23;20013;-86
2023/04/13 09:10:20;;;;;;;4.03;0.93;;;;;;;9.59;100.00;95247.00;6157508;23;20013;-85
2023/04/13 09:12:46;;;;;;;4.97;1.07;;;;;;;9.84;100.00;95252.03;6181987;23;20009;-85
2023/04/13 09:15:24;;;;;;;2.70;0.90;;;;;;;9.62;100.00;95240.56;6184629;23;20079;-85
2023/04/13 09:18:11;;;;;;;3.57;0.80;;;;;;;10.05;100.00;95248.69;6178721;23;20064;-85
2023/04/13 09:20:59;;;;;;;3.93;0.90;;;;;;;9.38;100.00;95257.34;6179694;23;20076;-85
2023/04/13 09:23:25;;;;;;;4.53;0.90;;;;;;;9.60;100.00;95250.44;6157685;23;20017;-85
2023/04/13 09:26:04;;;;;;;4.50;1.30;;;;;;;9.33;100.00;95249.19;6155421;23;20346;-86
2023/04/13 09:28:44;;;;;;;5.40;1.20;;;;;;;9.01;100.00;95260.72;6183724;23;20009;-86
2023/04/13 09:31:12;;;;;;;5.97;1.23;;;;;;;8.98;100.00;95267.09;6158051;23;20345;-86
2023/04/13 09:33:50;;;;;;;6.03;1.40;;;;;;;9.12;100.00;95266.38;6181697;23;20638;-85
2023/04/13 09:36:17;;;;;;;4.70;1.13;;;;;;;9.21;100.00;95265.31;6208951;23;20177;-86
2023/04/13 09:38:45;;;;;;;6.83;1.37;;;;;;;9.16;100.00;95275.53;6184411;23;20039;-86
2023/04/13 09:41:13;;;;;;;6.37;1.13;;;;;;;9.73;100.00;95257.72;6184816;23;20005;-86
2023/04/13 09:43:39;;;;;;;4.73;1.03;;;;;;;10.31;100.00;95253.56;6159003;23;20392;-86
2023/04/13 09:46:13;;;;;;;5.83;1.27;;;;;;;10.10;100.00;95252.44;6186337;23;20008;-86
2023/04/13 09:48:39;;;;;;;9.23;3.27;;;;;;;10.09;100.00;95242.94;6184184;23;20028;-85
2023/04/13 09:51:07;;;;;;;5.97;1.23;;;;;;;9.61;100.00;95241.56;6158729;23;20000;-86
2023/04/13 09:53:47;;;;;;;4.67;1.20;;;;;;;9.94;100.00;95239.47;6183710;23;20317;-86
2023/04/13 09:56:13;;;;;;;7.00;1.50;;;;;;;9.76;100.00;95239.81;6183566;23;20017;-85
2023/04/13 09:58:43;;;;;;;5.50;1.40;;;;;;;9.54;100.00;95240.66;6183662;23;20020;-85
2023/04/13 10:01:19;;;;;;;8.73;1.60;;;;;;;9.19;100.00;95232.41;6158225;23;20116;-86
2023/04/13 10:03:45;;;;;;;4.03;1.17;;;;;;;9.48;100.00;95236.09;6158754;23;20013;-86
2023/04/13 10:06:15;;;;;;;4.43;1.37;;;;;;;9.04;100.00;95234.94;6160227;23;20017;-85
2023/04/13 10:08:41;;;;;;;5.20;1.50;;;;;;;9.64;100.00;95226.28;6184241;23;20036;-86
2023/04/13 10:11:13;;;;;;;6.10;1.60;;;;;;;9.86;100.00;95223.78;6158695;23;20017;-85
2023/04/13 10:14:01;;;;;;;6.63;1.77;;;;;;;10.05;100.00;95228.50;6183414;23;20028;-86
2023/04/13 10:16:40;;;;;;;4.53;1.40;;;;;;;10.64;100.00;95211.09;6159119;23;20357;-86
2023/04/13 10:19:10;;;;;;;3.80;1.07;;;;;;;10.48;100.00;95222.63;6184795;23;20020;-86
2023/04/13 10:21:43;;;;;;;4.33;1.00;;;;;;;11.60;100.00;95211.63;6160567;23;20088;-86
2023/04/13 10:24:11;;;;;;;5.72;1.20;;;;;;;11.45;100.00;95203.81;6217770;23;20017;-84
2023/04/13 10:26:37;;;;;;;5.10;1.90;;;;;;;12.28;100.00;95202.19;6194767;23;20951;-86
2023/04/13 10:29:03;;;;;;;4.53;1.30;;;;;;;11.99;100.00;95211.94;6183329;23;20032;-85
2023/04/13 10:31:48;;;;;;;8.80;1.53;;;;;;;11.87;100.00;95213.50;6181950;23;20464;-85
2023/04/13 10:34:33;;;;;;;4.27;0.93;;;;;;;11.54;100.00;95208.75;6157866;23;20025;-86
2023/04/13 10:37:03;;;;;;;4.27;1.27;;;;;;;11.96;100.00;95204.44;6208205;23;20032;-86
2023/04/13 10:39:34;;;;;;;6.90;1.40;;;;;;;12.49;100.00;95196.81;6182781;23;20009;-85
2023/04/13 10:42:05;;;;;;;2.83;0.90;;;;;;;12.49;100.00;95206.56;6182359;23;20009;-86
2023/04/13 10:44:53;;;;;;;4.20;1.00;;;;;;;11.81;100.00;95195.81;6158233;23;20353;-85
2023/04/13 10:47:20;;;;;;;4.53;1.03;;;;;;;11.51;100.00;95206.50;6183705;23;20009;-85
2023/04/13 10:49:48;;;;;;;3.50;0.60;;;;;;;11.79;100.00;95208.34;6158094;23;20017;-86
2023/04/13 10:52:22;;;;;;;3.60;0.67;;;;;;;12.14;100.00;95203.94;6208267;23;20472;-85
2023/04/13 10:54:48;;;;;;;4.13;0.90;;;;;;;13.93;100.00;95202.75;6183276;23;20342;-84
2023/04/13 10:57:33;;;;;;;2.80;0.70;;;;;;;12.72;100.00;95211.50;6182915;23;20028;-90
2023/04/13 10:59:58;;;;;;;6.30;0.90;;;;;;;12.15;100.00;95207.41;6161782;23;20016;-84
2023/04/13 11:02:30;;;;;;;3.37;0.90;;;;;;;12.48;100.00;95205.75;6184846;23;20329;-86
2023/04/13 11:05:04;;;;;;;4.67;1.00;;;;;;;12.80;100.00;95198.13;6161551;23;20035;-86
2023/04/13 11:07:35;;;;;;;3.10;1.08;;;;;;;13.20;100.00;95195.59;6185002;23;20012;-87
2023/04/13 11:10:53;;;;;;;;;;;;;;;;;;;;;
2023/04/13 11:13:50;;;;;;;;;;;;;;;;;;;;;
2023/04/13 11:16:52;;;;;;;4.27;1.10;;;;;;;12.21;100.00;95193.44;6185634;23;20565;-87
2023/04/13 11:19:54;;;;;;;10.07;3.20;;;;;;;11.54;100.00;95192.16;6184186;23;20404;-86
2023/04/13 11:22:22;;;;;;;4.80;1.17;;;;;;;14.02;100.00;95177.75;6158868;23;20141;-87
2023/04/13 11:24:49;;;;;;;4.90;1.17;;;;;;;12.95;100.00;95190.88;6160015;23;20361;-87
2023/04/13 11:27:28;;;;;;;1.47;0.60;;;;;;;11.68;100.00;95179.91;6184513;23;20012;-85
2023/04/13 11:30:04;;;;;;;3.50;1.30;;;;;;;11.32;100.00;95186.09;6185957;23;20018;-88
2023/04/13 11:32:34;;;;;;;5.27;0.80;;;;;;;11.16;100.00;95200.31;6158809;23;20013;-87
2023/04/13 11:35:19;;;;;;;4.00;0.87;;;;;;;11.15;100.00;95195.25;6187681;23;20095;-87
2023/04/13 11:37:48;;;;;;;3.10;1.00;;;;;;;10.87;100.00;95198.63;6159648;23;20017;-86
2023/04/13 11:40:20;;;;;;;10.13;3.07;;;;;;;11.17;100.00;95203.78;6159357;23;20036;-87
2023/04/13 11:42:59;;;;;;;4.00;1.05;;;;;;;11.12;100.00;95206.16;6158918;23;20107;-88
2023/04/13 11:45:29;;;;;;;4.90;0.90;;;;;;;11.17;100.00;95196.69;6209605;23;20017;-87
2023/04/13 11:47:56;;;;;;;3.33;0.77;;;;;;;11.44;100.00;95194.31;6159872;23;20005;-87
2023/04/13 11:50:23;;;;;;;6.50;1.47;;;;;;;11.73;100.00;95195.94;6160529;23;20017;-87
2023/04/13 11:52:51;;;;;;;5.63;1.10;;;;;;;12.06;100.00;95190.09;6159255;23;20015;-87